Time;durP1;ratioP1;P1;durP2;ratioP2;P2;SDS_P1;SDS_P2;PMS_P1;PMS_P2;Temp;Humidity;BMP_temperature;BMP_pressure;BME280_temperature;BME280_humidity;BME280_pressure;Samples;Min_cycle;Max_cycle;Signal;HPM_P1;HPM_P2
2022/04/09 00:02:11;;;;;;;0.30;0.30;;;1.40;99.90;;;;;;5036204;28;20450;-78
2022/04/09 00:04:39;;;;;;;0.30;0.30;;;1.40;99.90;;;;;;5036238;28;20431;-79
2022/04/09 00:07:06;;;;;;;0.30;0.30;;;1.40;99.90;;;;;;5039231;28;20784;-80
2022/04/09 00:09:33;;;;;;;0.30;0.30;;;1.40;99.90;;;;;;5038995;28;20449;-80
2022/04/09 00:11:59;;;;;;;0.30;0.30;;;1.40;99.90;;;;;;5040391;28;20825;-80
2022/04/09 00:14:26;;;;;;;0.30;0.30;;;1.40;99.90;;;;;;5039886;28;20489;-79
2022/04/09 00:16:53;;;;;;;0.30;0.30;;;1.40;99.90;;;;;;5036867;28;20455;-78
2022/04/09 00:19:19;;;;;;;0.30;0.30;;;1.40;99.90;;;;;;5036660;28;20443;-79
2022/04/09 00:21:48;;;;;;;0.30;0.30;;;1.40;99.90;;;;;;5036264;28;20474;-79
2022/04/09 00:24:14;;;;;;;0.30;0.30;;;1.40;99.90;;;;;;5040377;28;20957;-79
2022/04/09 00:26:41;;;;;;;0.30;0.20;;;1.40;99.90;;;;;;5036936;28;20446;-79
2022/04/09 00:29:08;;;;;;;0.40;0.40;;;1.40;99.90;;;;;;5037402;28;20444;-79
2022/04/09 00:31:35;;;;;;;0.30;0.30;;;1.40;99.90;;;;;;5038089;28;20473;-80
2022/04/09 00:34:02;;;;;;;0.30;0.30;;;1.40;99.90;;;;;;5039047;28;20456;-80
2022/04/09 00:36:28;;;;;;;0.30;0.30;;;1.40;99.90;;;;;;5039019;28;20434;-80
2022/04/09 00:38:56;;;;;;;0.30;0.30;;;1.40;99.90;;;;;;5037900;28;20446;-79
2022/04/09 00:41:23;;;;;;;0.30;0.30;;;1.50;99.90;;;;;;5036471;28;20445;-79
2022/04/09 00:43:50;;;;;;;0.30;0.27;;;1.50;99.90;;;;;;5036227;28;20827;-79
2022/04/09 00:46:16;;;;;;;0.30;0.30;;;1.40;99.90;;;;;;5037710;28;20443;-80
2022/04/09 00:48:44;;;;;;;0.30;0.30;;;1.50;99.90;;;;;;5047136;28;20446;-79
2022/04/09 00:51:11;;;;;;;0.30;0.20;;;1.40;99.90;;;;;;5048754;28;20471;-79
2022/04/09 00:53:41;;;;;;;0.30;0.20;;;1.50;99.90;;;;;;5050153;28;20479;-78
2022/04/09 00:56:15;;;;;;;0.30;0.30;;;1.40;99.90;;;;;;5046620;28;20907;-78
2022/04/09 00:58:47;;;;;;;0.30;0.20;;;1.40;99.90;;;;;;5042521;28;20484;-78
2022/04/09 01:01:15;;;;;;;0.30;0.30;;;1.50;99.90;;;;;;5041587;28;20459;-79
2022/04/09 01:03:42;;;;;;;0.30;0.30;;;1.50;99.90;;;;;;5040990;28;20447;-78
2022/04/09 01:06:10;;;;;;;0.30;0.20;;;1.50;99.90;;;;;;5040012;28;20449;-79
2022/04/09 01:08:36;;;;;;;0.30;0.30;;;1.50;99.90;;;;;;5040388;28;20447;-78
2022/04/09 01:11:03;;;;;;;0.30;0.30;;;1.50;99.90;;;;;;5038855;28;20473;-78
2022/04/09 01:13:32;;;;;;;0.30;0.30;;;1.50;99.90;;;;;;5039522;28;20489;-78
2022/04/09 01:15:58;;;;;;;0.30;0.30;;;1.50;99.90;;;;;;5039717;28;20469;-79
2022/04/09 01:18:25;;;;;;;0.30;0.30;;;1.50;99.90;;;;;;5037207;28;20450;-78
2022/04/09 01:20:52;;;;;;;0.30;0.23;;;1.50;99.90;;;;;;5036987;28;20466;-79
2022/04/09 01:23:21;;;;;;;0.30;0.30;;;1.50;99.90;;;;;;5037366;28;20442;-78
2022/04/09 01:25:47;;;;;;;0.30;0.30;;;1.60;99.90;;;;;;5036629;28;20453;-79
2022/04/09 01:28:14;;;;;;;0.30;0.30;;;1.60;99.90;;;;;;5036604;28;20455;-79
2022/04/09 01:30:41;;;;;;;0.30;0.30;;;1.60;99.90;;;;;;5036378;28;20478;-79
2022/04/09 01:33:14;;;;;;;0.30;0.30;;;1.60;99.90;;;;;;5036606;28;20488;-79
2022/04/09 01:35:41;;;;;;;0.30;0.30;;;1.60;99.90;;;;;;5037109;28;20434;-78
2022/04/09 01:38:07;;;;;;;0.30;0.20;;;1.60;99.90;;;;;;5036936;28;20442;-78
2022/04/09 01:40:36;;;;;;;0.30;0.20;;;1.60;99.90;;;;;;5036371;28;20471;-79
2022/04/09 01:43:02;;;;;;;0.30;0.30;;;1.60;99.90;;;;;;5035922;28;20450;-79
2022/04/09 01:45:29;;;;;;;0.30;0.30;;;1.50;99.90;;;;;;5036332;28;20800;-78
2022/04/09 01:47:56;;;;;;;0.30;0.20;;;1.60;99.90;;;;;;5035915;28;20474;-78
2022/04/09 01:50:23;;;;;;;0.30;0.30;;;1.60;99.90;;;;;;5035735;28;20474;-78
2022/04/09 01:52:50;;;;;;;0.30;0.30;;;1.60;99.90;;;;;;5034851;28;20450;-77
2022/04/09 01:55:16;;;;;;;0.30;0.27;;;1.50;99.90;;;;;;5035362;28;20447;-77
2022/04/09 01:57:45;;;;;;;0.30;0.20;;;1.50;99.90;;;;;;5035674;28;20457;-77
2022/04/09 02:00:13;;;;;;;0.30;0.30;;;1.60;99.90;;;;;;5035851;28;20466;-79
2022/04/09 02:02:40;;;;;;;0.30;0.30;;;1.60;99.90;;;;;;5035605;28;20426;-78
2022/04/09 02:05:08;;;;;;;0.30;0.30;;;1.60;99.90;;;;;;5034810;28;20926;-78
2022/04/09 02:07:36;;;;;;;0.30;0.20;;;1.60;99.90;;;;;;5034830;28;20462;-78
2022/04/09 02:10:03;;;;;;;0.30;0.30;;;1.70;99.90;;;;;;5035083;28;20532;-78
2022/04/09 02:12:31;;;;;;;0.30;0.30;;;1.60;99.90;;;;;;5035396;28;20443;-78
2022/04/09 02:15:01;;;;;;;0.30;0.20;;;1.60;99.90;;;;;;5035044;28;20822;-78
2022/04/09 02:17:28;;;;;;;0.30;0.20;;;1.60;99.90;;;;;;5035104;28;20450;-79
2022/04/09 02:19:55;;;;;;;0.30;0.30;;;1.70;99.90;;;;;;5035001;28;20841;-79
2022/04/09 02:22:23;;;;;;;0.30;0.30;;;1.70;99.90;;;;;;5034972;28;20447;-79
2022/04/09 02:24:51;;;;;;;0.30;0.30;;;1.70;99.90;;;;;;5034805;28;20447;-79
2022/04/09 02:27:17;;;;;;;0.30;0.30;;;1.80;99.90;;;;;;5034817;28;20450;-79
2022/04/09 02:29:45;;;;;;;0.30;0.30;;;1.80;99.90;;;;;;5034390;28;20433;-79
2022/04/09 02:32:14;;;;;;;0.30;0.20;;;1.80;99.90;;;;;;5034104;28;20451;-79
2022/04/09 02:34:40;;;;;;;0.30;0.30;;;1.80;99.90;;;;;;5033787;28;20478;-79
2022/04/09 02:37:07;;;;;;;0.30;0.30;;;1.80;99.90;;;;;;5033793;28;20473;-78
2022/04/09 02:39:34;;;;;;;0.30;0.20;;;1.80;99.90;;;;;;5034327;28;20465;-78
2022/04/09 02:42:01;;;;;;;0.30;0.30;;;1.80;99.90;;;;;;5033848;28;20451;-79
2022/04/09 02:44:29;;;;;;;0.30;0.20;;;1.80;99.90;;;;;;5037554;28;20482;-81
2022/04/09 02:46:55;;;;;;;0.30;0.30;;;1.80;99.90;;;;;;5039433;28;20450;-81
2022/04/09 02:49:23;;;;;;;0.30;0.30;;;1.80;99.90;;;;;;5034243;28;20451;-79
2022/04/09 02:51:50;;;;;;;0.30;0.30;;;1.80;99.90;;;;;;5033394;28;20450;-79
2022/04/09 02:54:17;;;;;;;0.30;0.20;;;1.80;99.90;;;;;;5033325;28;20483;-78
2022/04/09 02:56:45;;;;;;;0.30;0.30;;;1.80;99.90;;;;;;5033487;28;20538;-79
2022/04/09 02:59:13;;;;;;;0.30;0.30;;;1.80;99.90;;;;;;5033601;28;20475;-78
2022/04/09 03:01:40;;;;;;;0.30;0.30;;;1.80;99.90;;;;;;5033579;28;20473;-79
2022/04/09 03:04:08;;;;;;;0.30;0.30;;;1.80;99.90;;;;;;5034278;28;20450;-78
2022/04/09 03:06:36;;;;;;;0.40;0.30;;;1.80;99.90;;;;;;5037747;28;20454;-78
2022/04/09 03:09:03;;;;;;;0.30;0.30;;;1.90;99.90;;;;;;5037398;28;20431;-79
2022/04/09 03:11:30;;;;;;;0.30;0.30;;;1.90;99.90;;;;;;5037085;28;20989;-80
2022/04/09 03:13:56;;;;;;;0.30;0.30;;;1.90;99.90;;;;;;5037401;28;20486;-80
2022/04/09 03:16:23;;;;;;;0.30;0.30;;;1.90;99.90;;;;;;5037915;28;20457;-80
2022/04/09 03:18:50;;;;;;;0.30;0.30;;;1.90;99.90;;;;;;5038650;28;20417;-81
2022/04/09 03:21:17;;;;;;;0.30;0.30;;;1.90;99.90;;;;;;5040021;28;20849;-81
2022/04/09 03:23:45;;;;;;;0.30;0.30;;;1.90;99.90;;;;;;5045417;28;20453;-81
2022/04/09 03:26:12;;;;;;;0.30;0.30;;;2.00;99.90;;;;;;5052228;28;20446;-81
2022/04/09 03:28:38;;;;;;;0.30;0.30;;;2.00;99.90;;;;;;5053271;28;20443;-82
2022/04/09 03:31:06;;;;;;;0.30;0.30;;;1.90;99.90;;;;;;5055355;28;20458;-81
2022/04/09 03:33:33;;;;;;;0.30;0.30;;;1.90;99.90;;;;;;5047486;28;20482;-80
2022/04/09 03:35:59;;;;;;;0.30;0.30;;;2.00;99.90;;;;;;5044909;28;20432;-81
2022/04/09 03:38:26;;;;;;;0.30;0.30;;;2.00;99.90;;;;;;5044456;28;20446;-82
2022/04/09 03:40:54;;;;;;;0.30;0.30;;;2.00;99.90;;;;;;5050199;28;20462;-82
2022/04/09 03:43:21;;;;;;;0.57;0.57;;;2.00;99.90;;;;;;5037937;28;20482;-80
2022/04/09 03:45:48;;;;;;;0.30;0.30;;;2.00;99.90;;;;;;5037572;28;20457;-80
2022/04/09 03:48:14;;;;;;;0.40;0.40;;;2.00;99.90;;;;;;5037228;28;20435;-80
2022/04/09 03:50:41;;;;;;;0.30;0.30;;;2.00;99.90;;;;;;5036334;28;20459;-80
2022/04/09 03:53:08;;;;;;;0.30;0.30;;;2.00;99.90;;;;;;5036440;28;20455;-80
2022/04/09 03:55:35;;;;;;;0.30;0.30;;;2.00;99.90;;;;;;5036414;28;20486;-79
2022/04/09 03:58:03;;;;;;;0.30;0.30;;;2.00;99.90;;;;;;5036425;28;20478;-79
2022/04/09 04:00:30;;;;;;;0.30;0.30;;;2.00;99.90;;;;;;5036288;28;20467;-79
2022/04/09 04:02:57;;;;;;;0.40;0.40;;;2.00;99.90;;;;;;5035967;28;20954;-79
2022/04/09 04:05:24;;;;;;;0.70;0.53;;;2.00;99.90;;;;;;5036218;28;20454;-80
2022/04/09 04:07:51;;;;;;;0.40;0.30;;;2.00;99.90;;;;;;5036544;28;20451;-80
2022/04/09 04:10:18;;;;;;;0.30;0.30;;;2.00;99.90;;;;;;5036150;28;20528;-80
2022/04/09 04:12:45;;;;;;;0.40;0.40;;;2.00;99.90;;;;;;5036165;28;20447;-79
2022/04/09 04:15:14;;;;;;;0.30;0.30;;;2.00;99.90;;;;;;5036199;28;20557;-80
2022/04/09 04:17:42;;;;;;;1.03;0.60;;;2.00;99.90;;;;;;5035425;28;20524;-80
2022/04/09 04:20:10;;;;;;;0.30;0.30;;;2.00;99.90;;;;;;5036932;28;20470;-80
2022/04/09 04:22:37;;;;;;;0.30;0.30;;;2.00;99.90;;;;;;5036763;28;20454;-80
2022/04/09 04:25:04;;;;;;;0.30;0.30;;;2.00;99.90;;;;;;5036975;28;20451;-80
2022/04/09 04:27:31;;;;;;;2.00;0.93;;;1.90;99.90;;;;;;5036578;28;20805;-81
2022/04/09 04:29:59;;;;;;;0.30;0.30;;;2.00;99.90;;;;;;5036463;28;20473;-80
2022/04/09 04:32:28;;;;;;;0.30;0.30;;;2.00;99.90;;;;;;5036358;28;20496;-79
2022/04/09 04:34:54;;;;;;;0.30;0.30;;;1.90;99.90;;;;;;5036573;28;21005;-80
2022/04/09 04:37:21;;;;;;;0.30;0.30;;;1.90;99.90;;;;;;5036622;28;20451;-80
2022/04/09 04:39:48;;;;;;;0.30;0.20;;;1.90;99.90;;;;;;5037162;28;20470;-81
2022/04/09 04:42:15;;;;;;;0.30;0.30;;;1.90;99.90;;;;;;5037676;28;20443;-80
2022/04/09 04:44:41;;;;;;;0.30;0.30;;;1.80;99.90;;;;;;5037697;28;20478;-80
2022/04/09 04:47:08;;;;;;;0.37;0.37;;;1.80;99.90;;;;;;5037989;28;20447;-81
2022/04/09 04:49:36;;;;;;;0.40;0.40;;;1.80;99.90;;;;;;5038770;28;20500;-81
2022/04/09 04:52:06;;;;;;;0.30;0.30;;;1.80;99.90;;;;;;5038709;28;20465;-81
2022/04/09 04:54:33;;;;;;;0.33;0.27;;;1.80;99.90;;;;;;5038670;28;20565;-81
2022/04/09 04:56:59;;;;;;;0.40;0.30;;;1.80;99.90;;;;;;5037541;28;20447;-81
2022/04/09 04:59:26;;;;;;;0.30;0.30;;;1.80;99.90;;;;;;5037856;28;20453;-81
2022/04/09 05:01:53;;;;;;;0.30;0.30;;;1.80;99.90;;;;;;5037440;28;20451;-80
2022/04/09 05:04:20;;;;;;;0.30;0.30;;;1.80;99.90;;;;;;5035653;28;20967;-80
2022/04/09 05:06:49;;;;;;;0.30;0.30;;;1.80;99.90;;;;;;5036251;28;20446;-80
2022/04/09 05:09:15;;;;;;;0.30;0.30;;;1.80;99.90;;;;;;5035465;28;20451;-80
2022/04/09 05:11:42;;;;;;;0.30;0.30;;;1.80;99.90;;;;;;5035883;28;20467;-80
2022/04/09 05:14:09;;;;;;;0.30;0.30;;;1.80;99.90;;;;;;5035631;28;20489;-80
2022/04/09 05:16:36;;;;;;;0.30;0.30;;;1.90;99.90;;;;;;5035330;28;20458;-80
2022/04/09 05:19:03;;;;;;;0.30;0.30;;;1.90;99.90;;;;;;5034944;28;20446;-80
2022/04/09 05:21:30;;;;;;;0.30;0.20;;;2.00;99.90;;;;;;5036131;28;20470;-79
2022/04/09 05:23:58;;;;;;;0.30;0.30;;;2.00;99.90;;;;;;5035460;28;20454;-79
2022/04/09 05:26:25;;;;;;;0.40;0.40;;;2.00;99.90;;;;;;5035487;28;20457;-80
2022/04/09 05:28:53;;;;;;;0.30;0.30;;;2.00;99.90;;;;;;5035393;28;20435;-79
2022/04/09 05:31:29;;;;;;;0.30;0.30;;;2.00;99.90;;;;;;5035218;28;20868;-79
2022/04/09 05:33:56;;;;;;;0.30;0.30;;;2.00;99.90;;;;;;5035226;28;20451;-80
2022/04/09 05:36:23;;;;;;;0.30;0.30;;;2.10;99.90;;;;;;5035623;28;20529;-79
2022/04/09 05:38:50;;;;;;;0.30;0.20;;;2.20;99.90;;;;;;5035174;28;20461;-80
2022/04/09 05:41:18;;;;;;;0.70;0.70;;;2.20;99.90;;;;;;5035242;28;20455;-80
2022/04/09 05:43:45;;;;;;;0.30;0.30;;;2.30;99.90;;;;;;5035104;28;20839;-79
2022/04/09 05:46:12;;;;;;;0.30;0.30;;;2.40;99.90;;;;;;5035234;28;20474;-80
2022/04/09 05:48:40;;;;;;;0.30;0.30;;;2.30;99.90;;;;;;5035484;28;20505;-80
2022/04/09 05:51:07;;;;;;;0.30;0.30;;;2.40;99.90;;;;;;5035718;28;20842;-81
2022/04/09 05:53:33;;;;;;;0.30;0.30;;;2.50;99.90;;;;;;5038870;28;20477;-80
2022/04/09 05:56:00;;;;;;;0.60;0.60;;;2.50;99.90;;;;;;5036321;28;20525;-80
2022/04/09 05:58:28;;;;;;;0.30;0.30;;;2.60;99.90;;;;;;5036074;28;20459;-79
2022/04/09 06:00:55;;;;;;;0.30;0.30;;;2.60;99.90;;;;;;5036175;28;20837;-80
2022/04/09 06:03:23;;;;;;;0.30;0.30;;;2.50;99.90;;;;;;5044550;28;20533;-81
2022/04/09 06:05:49;;;;;;;0.30;0.30;;;2.60;99.90;;;;;;5044917;28;20442;-80
2022/04/09 06:08:16;;;;;;;0.30;0.30;;;2.70;99.90;;;;;;5046704;28;20451;-80
2022/04/09 06:10:43;;;;;;;0.30;0.30;;;2.70;99.90;;;;;;5046473;28;20489;-79
2022/04/09 06:13:12;;;;;;;1.73;1.63;;;2.60;99.90;;;;;;5040018;28;20455;-78
2022/04/09 06:15:40;;;;;;;0.30;0.30;;;2.60;99.90;;;;;;5038152;28;20487;-78
2022/04/09 06:18:08;;;;;;;0.30;0.30;;;2.60;99.90;;;;;;5035075;28;20455;-78
2022/04/09 06:20:35;;;;;;;0.30;0.20;;;2.60;99.90;;;;;;5034365;28;20466;-78
2022/04/09 06:23:04;;;;;;;0.30;0.30;;;2.60;99.90;;;;;;5034225;28;20462;-78
2022/04/09 06:25:31;;;;;;;1.27;0.63;;;2.60;99.90;;;;;;5034021;28;20443;-78
2022/04/09 06:27:57;;;;;;;0.40;0.40;;;2.70;99.90;;;;;;5033748;28;20450;-78
2022/04/09 06:30:25;;;;;;;0.40;0.40;;;3.00;99.90;;;;;;5033754;28;20466;-78
2022/04/09 06:35:57;;;;;;;0.40;0.40;;;4.10;99.90;;;;;;5026629;28;20470;-78
2022/04/09 06:38:27;;;;;;;0.30;0.30;;;4.70;99.90;;;;;;5033535;28;20455;-78
2022/04/09 06:40:54;;;;;;;0.40;0.30;;;5.30;99.90;;;;;;5032902;28;20544;-78
2022/04/09 06:43:21;;;;;;;0.67;0.67;;;5.70;99.90;;;;;;5033693;28;20855;-78
2022/04/09 06:45:48;;;;;;;0.30;0.30;;;5.70;99.90;;;;;;5034205;28;20455;-78
2022/04/09 06:48:16;;;;;;;0.30;0.20;;;5.30;99.90;;;;;;5034081;28;20447;-78
2022/04/09 06:50:43;;;;;;;0.30;0.30;;;5.50;99.90;;;;;;5033916;28;20473;-78
2022/04/09 06:53:10;;;;;;;0.30;0.30;;;5.30;99.90;;;;;;5033643;28;20826;-78
2022/04/09 06:55:38;;;;;;;0.30;0.30;;;5.10;99.90;;;;;;5033762;28;20493;-78
2022/04/09 06:58:05;;;;;;;0.40;0.40;;;4.80;99.90;;;;;;5033071;28;20461;-78
2022/04/09 07:00:33;;;;;;;0.50;0.50;;;4.80;99.90;;;;;;5033536;28;20470;-77
2022/04/09 07:03:00;;;;;;;0.40;0.40;;;4.80;99.90;;;;;;5033349;28;20961;-78
2022/04/09 07:05:28;;;;;;;0.33;0.33;;;5.00;99.90;;;;;;5033708;28;20450;-76
2022/04/09 07:07:55;;;;;;;0.40;0.40;;;5.50;99.90;;;;;;5033143;28;20445;-79
2022/04/09 07:10:22;;;;;;;0.30;0.30;;;6.20;99.90;;;;;;5033061;28;20478;-79
2022/04/09 07:12:49;;;;;;;0.40;0.40;;;6.70;99.90;;;;;;5033171;28;20438;-79
2022/04/09 07:15:16;;;;;;;0.40;0.30;;;7.20;99.90;;;;;;5032792;28;20848;-80
2022/04/09 07:17:43;;;;;;;0.50;0.50;;;7.60;99.90;;;;;;5033054;28;20455;-82
2022/04/09 07:20:11;;;;;;;0.30;0.20;;;8.10;99.90;;;;;;5033714;28;20474;-81
2022/04/09 07:22:40;;;;;;;0.30;0.30;;;8.50;99.90;;;;;;5033114;28;20447;-80
2022/04/09 07:25:08;;;;;;;0.30;0.30;;;8.70;99.90;;;;;;5032966;28;20435;-80
2022/04/09 07:27:36;;;;;;;1.13;0.40;;;8.40;99.90;;;;;;5032778;28;20412;-81
2022/04/09 07:30:05;;;;;;;0.70;0.47;;;8.20;99.90;;;;;;5032570;28;20521;-81
2022/04/09 07:32:31;;;;;;;0.40;0.40;;;8.00;99.90;;;;;;5032650;28;20935;-80
2022/04/09 07:34:58;;;;;;;0.80;0.80;;;7.50;99.90;;;;;;5032810;28;20486;-82
2022/04/09 07:37:25;;;;;;;0.73;0.33;;;7.40;99.90;;;;;;5033122;28;20454;-81
2022/04/09 07:39:53;;;;;;;0.97;0.30;;;7.60;99.90;;;;;;5033008;28;20463;-82
2022/04/09 07:42:21;;;;;;;0.30;0.27;;;8.20;99.90;;;;;;5033276;28;20418;-81
2022/04/09 07:44:48;;;;;;;0.97;0.30;;;8.60;99.90;;;;;;5032509;28;20486;-82
2022/04/09 07:47:15;;;;;;;0.50;0.40;;;8.80;99.90;;;;;;5032549;28;20470;-82
2022/04/09 07:49:44;;;;;;;0.50;0.47;;;8.60;99.90;;;;;;5032747;28;20506;-82
2022/04/09 07:52:11;;;;;;;0.30;0.30;;;8.10;99.90;;;;;;5034023;28;20450;-81
2022/04/09 07:54:38;;;;;;;0.30;0.30;;;7.70;99.90;;;;;;5036307;28;20450;-81
2022/04/09 07:57:06;;;;;;;0.40;0.33;;;7.30;99.90;;;;;;5036336;28;20454;-80
2022/04/09 07:59:33;;;;;;;0.30;0.30;;;7.00;99.90;;;;;;5036186;28;20458;-80
2022/04/09 08:02:00;;;;;;;0.30;0.30;;;6.70;99.90;;;;;;5036290;28;20860;-80
2022/04/09 08:04:27;;;;;;;1.00;0.60;;;6.50;99.90;;;;;;5036215;28;20442;-79
2022/04/09 08:06:54;;;;;;;0.40;0.33;;;6.40;99.90;;;;;;5035876;28;20930;-79
2022/04/09 08:09:20;;;;;;;1.40;0.50;;;6.40;99.90;;;;;;5036109;28;20450;-79
2022/04/09 08:11:47;;;;;;;0.77;0.43;;;6.70;99.90;;;;;;5036207;28;20478;-81
2022/04/09 08:14:15;;;;;;;0.40;0.40;;;7.10;99.90;;;;;;5035899;28;20451;-79
2022/04/09 08:16:42;;;;;;;0.40;0.30;;;7.60;99.90;;;;;;5035713;28;20490;-79
2022/04/09 08:19:09;;;;;;;0.30;0.30;;;7.80;99.90;;;;;;5035962;28;20471;-78
2022/04/09 08:21:35;;;;;;;0.40;0.30;;;8.20;99.90;;;;;;5035785;28;20471;-79
2022/04/09 08:24:02;;;;;;;0.30;0.30;;;8.50;99.90;;;;;;5035865;28;20443;-79
2022/04/09 08:26:29;;;;;;;0.47;0.47;;;8.20;99.90;;;;;;5035931;28;20450;-79
2022/04/09 08:28:56;;;;;;;0.40;0.40;;;8.00;99.90;;;;;;5035758;28;20435;-80
2022/04/09 08:31:25;;;;;;;0.30;0.30;;;7.70;99.90;;;;;;5035318;28;20989;-81
2022/04/09 08:33:52;;;;;;;0.40;0.40;;;7.60;99.90;;;;;;5035895;28;20449;-83
2022/04/09 08:36:19;;;;;;;0.60;0.30;;;7.80;99.90;;;;;;5035538;28;20540;-81
2022/04/09 08:38:45;;;;;;;0.30;0.20;;;8.20;99.90;;;;;;5035292;28;20435;-79
2022/04/09 08:41:14;;;;;;;0.57;0.57;;;8.60;99.90;;;;;;5035881;28;20825;-79
2022/04/09 08:43:42;;;;;;;0.30;0.30;;;9.00;99.90;;;;;;5035167;28;20544;-79
2022/04/09 08:46:09;;;;;;;0.30;0.30;;;9.20;99.90;;;;;;5035408;28;20443;-79
2022/04/09 08:48:38;;;;;;;0.30;0.30;;;9.30;99.90;;;;;;5035895;28;20446;-79
2022/04/09 08:51:04;;;;;;;0.60;0.60;;;9.70;99.90;;;;;;5035237;28;20470;-79
2022/04/09 08:53:31;;;;;;;0.40;0.40;;;9.80;99.90;;;;;;5035295;28;20444;-79
2022/04/09 08:55:58;;;;;;;0.80;0.50;;;9.60;99.90;;;;;;5035173;28;20490;-79
2022/04/09 08:58:25;;;;;;;0.50;0.50;;;9.10;99.90;;;;;;5035385;28;20430;-79
2022/04/09 09:00:52;;;;;;;0.73;0.47;;;8.80;99.90;;;;;;5035390;28;20463;-78
2022/04/09 09:03:18;;;;;;;0.53;0.40;;;8.40;99.90;;;;;;5034982;28;20441;-80
2022/04/09 09:05:52;;;;;;;0.30;0.20;;;8.10;99.90;;;;;;5034809;28;20438;-78
2022/04/09 09:08:36;;;;;;;0.63;0.50;;;7.80;99.90;;;;;;5035179;28;20470;-78
2022/04/09 09:11:03;;;;;;;0.30;0.30;;;7.70;99.90;;;;;;5035116;28;20529;-79
2022/04/09 09:13:29;;;;;;;0.40;0.33;;;8.00;99.90;;;;;;5035204;28;20439;-80
2022/04/09 09:15:56;;;;;;;0.40;0.30;;;7.70;99.90;;;;;;5034749;28;20482;-79
2022/04/09 09:18:24;;;;;;;1.03;0.60;;;7.50;99.90;;;;;;5034792;28;20557;-79
2022/04/09 09:20:54;;;;;;;0.40;0.30;;;7.40;99.90;;;;;;5034601;28;20449;-80
2022/04/09 09:23:22;;;;;;;0.70;0.30;;;7.20;99.90;;;;;;5034706;28;20457;-80
2022/04/09 09:25:50;;;;;;;0.30;0.30;;;7.10;99.90;;;;;;5034376;28;20443;-80
2022/04/09 09:28:24;;;;;;;5.40;0.67;;;7.60;99.90;;;;;;5034574;28;20461;-80
2022/04/09 09:30:51;;;;;;;0.50;0.50;;;8.30;99.90;;;;;;5034562;28;20466;-81
2022/04/09 09:33:18;;;;;;;0.30;0.27;;;9.20;99.90;;;;;;5035226;28;20446;-81
2022/04/09 09:35:49;;;;;;;0.40;0.30;;;10.50;99.90;;;;;;5034379;28;20486;-80
2022/04/09 09:38:22;;;;;;;0.30;0.30;;;12.30;99.90;;;;;;5034323;28;20481;-80
2022/04/09 09:40:49;;;;;;;0.50;0.50;;;13.90;99.90;;;;;;5034279;28;20471;-79
2022/04/09 09:43:16;;;;;;;0.50;0.50;;;15.10;99.90;;;;;;5034316;28;20482;-80
2022/04/09 09:45:43;;;;;;;1.33;0.50;;;16.40;99.90;;;;;;5034343;28;20427;-79
2022/04/09 09:48:23;;;;;;;2.20;2.03;;;16.30;99.50;;;;;;5034254;28;20434;-80
2022/04/09 09:50:51;;;;;;;2.73;0.87;;;15.20;98.10;;;;;;5034191;28;20479;-80
2022/04/09 09:53:28;;;;;;;0.40;0.40;;;15.60;98.70;;;;;;5034182;28;20435;-79
2022/04/09 09:55:55;;;;;;;0.70;0.40;;;16.20;98.10;;;;;;5033863;28;20458;-79
2022/04/09 09:58:23;;;;;;;0.60;0.60;;;16.70;94.20;;;;;;5034153;28;20466;-79
2022/04/09 10:00:50;;;;;;;0.50;0.50;;;16.80;94.20;;;;;;5033988;28;20471;-79
2022/04/09 10:03:17;;;;;;;0.50;0.50;;;16.50;90.30;;;;;;5033959;28;20450;-79
2022/04/09 10:05:43;;;;;;;0.70;0.43;;;15.60;92.00;;;;;;5033612;28;20969;-79
2022/04/09 10:08:10;;;;;;;1.07;0.97;;;15.30;90.80;;;;;;5033636;28;20910;-79
2022/04/09 10:10:43;;;;;;;0.90;0.80;;;15.20;92.20;;;;;;5033766;28;20474;-79
2022/04/09 10:13:10;;;;;;;0.40;0.40;;;15.00;92.50;;;;;;5034104;28;20435;-79
2022/04/09 10:15:39;;;;;;;0.40;0.30;;;14.80;93.50;;;;;;5032694;28;20449;-79
2022/04/09 10:18:08;;;;;;;0.50;0.50;;;14.90;95.10;;;;;;5033362;28;20439;-79
2022/04/09 10:20:36;;;;;;;0.60;0.40;;;14.80;93.10;;;;;;5033281;28;20466;-80
2022/04/09 10:23:06;;;;;;;0.47;0.47;;;14.50;92.80;;;;;;5033622;28;20451;-79
2022/04/09 10:25:34;;;;;;;0.63;0.47;;;14.20;94.60;;;;;;5034699;28;20853;-79
2022/04/09 10:28:04;;;;;;;2.10;0.40;;;14.20;94.60;;;;;;5033831;28;20805;-79
2022/04/09 10:30:39;;;;;;;0.50;0.40;;;14.00;95.50;;;;;;5033535;28;20658;-80
2022/04/09 10:33:22;;;;;;;0.40;0.40;;;13.20;94.50;;;;;;5033590;28;20435;-80
2022/04/09 10:35:50;;;;;;;0.97;0.40;;;13.30;95.20;;;;;;5033508;28;20603;-80
2022/04/09 10:38:22;;;;;;;0.33;0.33;;;13.70;93.00;;;;;;5033446;28;20442;-81
2022/04/09 10:41:27;;;;;;;0.50;0.50;;;14.20;92.70;;;;;;5033416;28;20475;-81
2022/04/09 10:43:58;;;;;;;0.50;0.50;;;14.80;91.20;;;;;;5033162;28;20521;-80
2022/04/09 10:46:37;;;;;;;0.60;0.50;;;14.60;90.40;;;;;;5033361;28;20521;-81
2022/04/09 10:49:22;;;;;;;0.60;0.50;;;14.50;91.70;;;;;;5033248;28;20435;-80
2022/04/09 10:52:11;;;;;;;0.43;0.43;;;15.20;91.80;;;;;;5033358;28;20507;-81
2022/04/09 10:54:39;;;;;;;0.50;0.40;;;16.70;90.10;;;;;;5033249;28;20684;-80
2022/04/09 10:57:22;;;;;;;0.50;0.50;;;17.50;87.60;;;;;;5032469;28;20470;-80
2022/04/09 10:59:58;;;;;;;2.03;0.43;;;17.50;78.70;;;;;;5032931;28;20854;-80
2022/04/09 11:02:26;;;;;;;0.50;0.40;;;16.80;83.30;;;;;;5033187;28;20922;-80
2022/04/09 11:04:53;;;;;;;0.40;0.30;;;16.60;77.50;;;;;;5033198;28;20516;-80
2022/04/09 11:07:21;;;;;;;1.00;0.40;;;16.20;78.90;;;;;;5033209;28;20431;-80
2022/04/09 11:10:03;;;;;;;0.40;0.30;;;15.20;83.20;;;;;;5032798;28;20817;-80
2022/04/09 11:12:31;;;;;;;0.40;0.40;;;14.10;84.70;;;;;;5032311;28;20454;-80
2022/04/09 11:15:01;;;;;;;0.40;0.40;;;13.00;86.20;;;;;;5032876;28;20418;-80
2022/04/09 11:17:30;;;;;;;1.27;0.60;;;12.50;86.60;;;;;;5033006;28;20487;-80
2022/04/09 11:20:01;;;;;;;1.00;0.30;;;12.20;90.50;;;;;;5032795;28;20446;-81
2022/04/09 11:22:35;;;;;;;0.37;0.30;;;12.00;92.00;;;;;;5032919;28;20435;-81
2022/04/09 11:25:03;;;;;;;0.30;0.30;;;11.80;92.80;;;;;;5032952;28;20453;-81
2022/04/09 11:27:31;;;;;;;0.43;0.40;;;11.60;92.30;;;;;;5036642;28;20458;-80
2022/04/09 11:29:58;;;;;;;0.40;0.30;;;11.50;93.30;;;;;;5036379;28;20985;-80
2022/04/09 11:32:27;;;;;;;1.80;0.40;;;11.50;94.90;;;;;;5036749;28;20439;-80
2022/04/09 11:34:56;;;;;;;0.40;0.30;;;11.40;94.10;;;;;;5036492;28;20450;-79
2022/04/09 11:37:26;;;;;;;0.40;0.30;;;11.70;94.20;;;;;;5037122;28;20497;-80
2022/04/09 11:39:54;;;;;;;0.50;0.40;;;11.80;92.90;;;;;;5036321;28;21068;-79
2022/04/09 11:42:21;;;;;;;0.40;0.30;;;11.90;93.30;;;;;;5036319;28;20822;-79
2022/04/09 11:44:47;;;;;;;0.40;0.30;;;12.00;93.60;;;;;;5036384;28;20482;-79
2022/04/09 11:47:16;;;;;;;0.60;0.60;;;11.90;92.40;;;;;;5036707;28;20438;-79
2022/04/09 11:49:47;;;;;;;0.33;0.33;;;11.50;92.40;;;;;;5036531;28;20455;-80
2022/04/09 11:52:24;;;;;;;0.30;0.30;;;11.30;93.20;;;;;;5036577;28;20443;-80
2022/04/09 11:54:52;;;;;;;0.30;0.30;;;11.10;91.80;;;;;;5036467;28;20438;-79
2022/04/09 11:57:18;;;;;;;0.30;0.30;;;11.20;93.60;;;;;;5036312;28;20490;-80
2022/04/09 11:59:51;;;;;;;0.40;0.30;;;11.00;90.90;;;;;;5035983;28;20439;-80
2022/04/09 12:02:21;;;;;;;0.40;0.40;;;11.00;93.60;;;;;;5036298;28;20458;-80
2022/04/09 12:04:49;;;;;;;0.37;0.30;;;10.90;93.20;;;;;;5036200;28;20504;-80
2022/04/09 12:07:17;;;;;;;0.40;0.30;;;10.90;92.60;;;;;;5036443;28;20454;-80
2022/04/09 12:09:44;;;;;;;0.30;0.20;;;10.80;92.20;;;;;;5035725;28;20969;-79
2022/04/09 12:12:11;;;;;;;0.37;0.33;;;10.50;92.70;;;;;;5036090;28;20454;-80
2022/04/09 12:14:39;;;;;;;0.40;0.30;;;10.10;90.70;;;;;;5035772;28;20455;-81
2022/04/09 12:17:13;;;;;;;0.30;0.30;;;9.70;92.40;;;;;;5035928;28;20482;-79
2022/04/09 12:19:43;;;;;;;0.30;0.20;;;9.70;92.40;;;;;;5035711;28;20419;-80
2022/04/09 12:22:20;;;;;;;0.30;0.30;;;9.60;94.10;;;;;;5035588;28;20462;-79
2022/04/09 12:24:53;;;;;;;0.70;0.40;;;9.70;96.30;;;;;;5035914;28;20427;-82
2022/04/09 12:27:22;;;;;;;0.60;0.30;;;9.90;95.30;;;;;;5035857;28;20434;-81
2022/04/09 12:29:54;;;;;;;0.40;0.30;;;10.20;94.50;;;;;;5035704;28;20442;-81
2022/04/09 12:32:25;;;;;;;0.30;0.30;;;10.30;93.10;;;;;;5035396;28;20899;-81
2022/04/09 12:34:56;;;;;;;0.50;0.50;;;10.50;94.10;;;;;;5035758;28;20423;-81
2022/04/09 12:37:25;;;;;;;0.40;0.30;;;10.60;93.60;;;;;;5035102;28;20474;-82
2022/04/09 12:39:52;;;;;;;0.50;0.30;;;10.70;93.30;;;;;;5035188;28;21001;-81
2022/04/09 12:42:31;;;;;;;0.30;0.30;;;10.70;93.20;;;;;;5035222;28;20947;-82
2022/04/09 12:45:15;;;;;;;0.60;0.40;;;10.70;92.10;;;;;;5035673;28;20438;-81
2022/04/09 12:47:42;;;;;;;0.40;0.30;;;10.60;93.10;;;;;;5035266;28;20450;-81
2022/04/09 12:50:24;;;;;;;0.30;0.30;;;10.50;93.30;;;;;;5035041;28;21005;-82
2022/04/09 12:52:52;;;;;;;0.40;0.30;;;10.30;92.80;;;;;;5035532;28;20465;-81
2022/04/09 12:55:21;;;;;;;0.30;0.30;;;10.40;91.20;;;;;;5035232;28;20447;-81
2022/04/09 12:57:47;;;;;;;1.60;0.57;;;10.20;91.80;;;;;;5034968;28;20491;-82
2022/04/09 13:00:15;;;;;;;1.03;1.03;;;10.10;92.30;;;;;;5035268;28;20474;-81
2022/04/09 13:02:44;;;;;;;0.40;0.40;;;9.90;91.70;;;;;;5034905;28;20446;-82
2022/04/09 13:05:11;;;;;;;0.30;0.30;;;9.90;92.80;;;;;;5035019;28;20454;-81